Time;durP1;ratioP1;P1;durP2;ratioP2;P2;SDS_P1;SDS_P2;PMS_P1;PMS_P2;Temp;Humidity;BMP_temperature;BMP_pressure;BME280_temperature;BME280_humidity;BME280_pressure;Samples;Min_cycle;Max_cycle;Signal;HPM_P1;HPM_P2
2022/08/30 00:03:08;;;;;;;10.17;3.80;;;;;;;22.25;100.00;101978.34;5077370;28;20029;-59
2022/08/30 00:05:34;;;;;;;19.00;3.70;;;;;;;22.09;100.00;101969.91;5082969;28;20033;-56
2022/08/30 00:08:00;;;;;;;;;;;;;;;22.17;100.00;101957.78;5084604;28;20027;-59
2022/08/30 00:10:27;;;;;;;8.50;3.30;;;;;;;22.18;100.00;101965.72;5081439;28;19991;-58
2022/08/30 00:12:54;;;;;;;12.13;3.77;;;;;;;22.11;100.00;101958.78;5082240;28;20063;-59
2022/08/30 00:15:20;;;;;;;13.67;3.50;;;;;;;21.92;100.00;101959.00;5082025;28;20036;-57
2022/08/30 00:17:46;;;;;;;13.73;3.55;;;;;;;21.35;100.00;101955.19;5078324;28;20105;-56
2022/08/30 00:20:17;;;;;;;7.45;3.00;;;;;;;21.47;100.00;101947.78;5082620;28;20009;-56
2022/08/30 00:22:43;;;;;;;10.47;3.30;;;;;;;21.38;100.00;101945.69;5077348;28;20029;-58
2022/08/30 00:25:11;;;;;;;8.00;3.08;;;;;;;21.24;100.00;101951.44;5078966;28;20053;-59
2022/08/30 00:27:37;;;;;;;17.63;4.03;;;;;;;21.55;100.00;101943.03;5081135;28;20119;-56
2022/08/30 00:30:04;;;;;;;5.55;3.13;;;;;;;21.52;100.00;101946.25;5083546;28;20357;-57
2022/08/30 00:32:29;;;;;;;7.87;3.27;;;;;;;21.68;100.00;101947.38;5084136;28;20051;-58
2022/08/30 00:34:55;;;;;;;10.77;3.90;;;;;;;21.80;100.00;101950.06;5078432;28;20391;-57
2022/08/30 00:37:20;;;;;;;6.78;3.10;;;;;;;21.65;100.00;101942.44;5085189;28;20115;-55
2022/08/30 00:39:47;;;;;;;13.38;3.38;;;;;;;21.65;100.00;101950.59;5081395;28;20052;-57
2022/08/30 00:42:13;;;;;;;;;;;;;;;21.71;100.00;101955.09;5080899;28;20071;-57
2022/08/30 00:44:41;;;;;;;6.63;3.58;;;;;;;21.63;100.00;101953.53;5079154;28;19919;-54
2022/08/30 00:47:07;;;;;;;8.57;3.63;;;;;;;21.65;100.00;101956.88;5080985;28;20036;-58
2022/08/30 00:49:35;;;;;;;;;;;;;;;21.51;100.00;101953.59;5079254;28;20036;-55
2022/08/30 00:52:03;;;;;;;7.77;3.43;;;;;;;21.46;100.00;101957.03;5079424;28;19923;-55
2022/08/30 00:54:30;;;;;;;16.40;4.37;;;;;;;21.51;100.00;101960.91;5081916;28;20029;-58
2022/08/30 00:56:56;;;;;;;6.67;3.27;;;;;;;21.53;100.00;101954.19;5078798;28;20028;-58
2022/08/30 00:59:24;;;;;;;13.93;4.30;;;;;;;21.41;100.00;101956.94;5084358;28;20031;-56
2022/08/30 01:01:50;;;;;;;9.43;3.47;;;;;;;21.53;100.00;101943.28;5082777;28;20040;-56
2022/08/30 01:04:18;;;;;;;8.60;3.70;;;;;;;21.56;100.00;101948.25;5079062;28;20297;-58
2022/08/30 01:06:45;;;;;;;7.57;4.13;;;;;;;21.51;100.00;101950.88;5083041;28;20053;-58
2022/08/30 01:09:12;;;;;;;9.93;3.70;;;;;;;21.49;100.00;101951.09;5079451;28;20036;-58
2022/08/30 01:11:40;;;;;;;6.67;3.67;;;;;;;21.50;100.00;101960.09;5080870;28;20033;-58
2022/08/30 01:14:07;;;;;;;7.53;3.60;;;;;;;21.42;100.00;101963.19;5079599;28;20258;-57
2022/08/30 01:16:35;;;;;;;10.13;4.07;;;;;;;21.41;100.00;101961.53;5081441;28;20281;-56
2022/08/30 01:19:01;;;;;;;10.33;4.23;;;;;;;21.41;100.00;101970.53;5081004;28;20044;-57
2022/08/30 01:21:45;;;;;;;6.15;3.47;;;;;;;21.40;100.00;101966.16;5077174;28;20274;-59
2022/08/30 01:24:11;;;;;;;11.80;3.80;;;;;;;21.41;100.00;101972.41;5074284;28;20084;-57
2022/08/30 01:26:38;;;;;;;4.90;3.60;;;;;;;21.29;100.00;101967.84;5083634;28;20075;-58
2022/08/30 01:29:09;;;;;;;6.10;4.07;;;;;;;21.27;100.00;101969.16;5073671;28;20037;-58
2022/08/30 01:31:35;;;;;;;10.03;4.30;;;;;;;21.09;100.00;101976.38;5084436;28;20300;-59
2022/08/30 01:34:06;;;;;;;9.73;4.93;;;;;;;21.17;100.00;101969.75;5074977;28;20316;-58
2022/08/30 01:36:34;;;;;;;9.10;5.20;;;;;;;21.13;100.00;101980.31;5080854;28;20053;-59
2022/08/30 01:39:00;;;;;;;10.73;5.20;;;;;;;21.11;100.00;101979.72;5081068;28;20040;-55
2022/08/30 01:41:29;;;;;;;8.53;4.33;;;;;;;21.13;100.00;101982.19;5079912;28;20264;-58
2022/08/30 01:43:59;;;;;;;7.87;4.63;;;;;;;21.20;100.00;101972.84;5080411;28;20296;-59
2022/08/30 01:46:29;;;;;;;10.97;5.10;;;;;;;21.06;100.00;101985.03;5081344;28;20096;-58
2022/08/30 01:48:56;;;;;;;10.87;5.60;;;;;;;21.14;100.00;101983.84;5080990;28;20033;-58
2022/08/30 01:51:25;;;;;;;7.57;4.50;;;;;;;21.11;100.00;101989.75;5080013;28;20032;-58
2022/08/30 01:53:51;;;;;;;9.57;5.17;;;;;;;21.06;100.00;101988.59;5079465;28;20345;-59
2022/08/30 01:56:17;;;;;;;9.23;4.65;;;;;;;21.10;100.00;101988.09;5078962;28;20283;-57
2022/08/30 01:58:42;;;;;;;12.88;5.20;;;;;;;20.98;100.00;101980.78;5079604;28;20067;-56
2022/08/30 02:01:11;;;;;;;10.85;5.28;;;;;;;21.09;100.00;101983.75;5080634;28;20029;-59
2022/08/30 02:03:39;;;;;;;7.37;5.03;;;;;;;21.01;100.00;101977.59;5082058;28;20044;-57
2022/08/30 02:06:07;;;;;;;11.00;5.13;;;;;;;21.00;100.00;101986.84;5080988;28;20281;-59
2022/08/30 02:08:33;;;;;;;9.03;5.10;;;;;;;20.90;100.00;101981.16;5074586;28;20288;-59
2022/08/30 02:11:00;;;;;;;12.53;5.90;;;;;;;21.00;100.00;101984.13;5077399;28;20285;-58
2022/08/30 02:13:26;;;;;;;7.00;4.82;;;;;;;21.05;100.00;101977.94;5082984;28;20292;-59
2022/08/30 02:15:54;;;;;;;8.33;5.03;;;;;;;20.98;100.00;101986.22;5074205;28;20024;-59
2022/08/30 02:18:21;;;;;;;12.70;5.77;;;;;;;21.10;100.00;101983.47;5078106;28;20286;-58
2022/08/30 02:20:46;;;;;;;12.80;5.20;;;;;;;21.17;100.00;101972.47;5079609;28;20327;-57
2022/08/30 02:23:12;;;;;;;12.25;4.95;;;;;;;21.16;100.00;101976.25;5079480;28;20281;-58
2022/08/30 02:25:38;;;;;;;12.88;5.70;;;;;;;21.11;100.00;101973.44;5078637;28;20058;-58
2022/08/30 02:28:04;;;;;;;13.98;6.03;;;;;;;20.98;100.00;101967.19;5081418;28;20028;-58
2022/08/30 02:30:30;;;;;;;17.63;5.90;;;;;;;21.00;100.00;101958.81;5081198;28;20053;-58
2022/08/30 02:32:56;;;;;;;13.00;5.63;;;;;;;20.93;100.00;101967.06;5077582;28;20274;-58
2022/08/30 02:35:22;;;;;;;8.30;5.65;;;;;;;20.95;100.00;101964.94;5080719;28;20041;-57
2022/08/30 02:37:47;;;;;;;9.10;5.35;;;;;;;20.97;100.00;101959.28;5080549;28;20037;-58
2022/08/30 02:40:13;;;;;;;8.25;5.68;;;;;;;21.03;100.00;101961.03;5080553;28;20029;-58
2022/08/30 02:42:40;;;;;;;11.38;6.15;;;;;;;20.96;100.00;101955.72;5076384;28;20049;-58
2022/08/30 02:45:07;;;;;;;9.13;5.70;;;;;;;20.87;100.00;101947.09;5072085;28;20033;-57
2022/08/30 02:47:33;;;;;;;9.53;5.83;;;;;;;20.71;100.00;101943.19;5072291;28;20284;-59
2022/08/30 02:50:05;;;;;;;10.57;6.22;;;;;;;20.76;100.00;101945.19;5073906;28;20285;-55
2022/08/30 02:52:31;;;;;;;8.57;5.20;;;;;;;20.77;100.00;101950.41;5070448;28;20056;-57
2022/08/30 02:54:56;;;;;;;8.10;4.43;;;;;;;20.92;100.00;101949.09;5074489;28;20033;-56
2022/08/30 02:57:22;;;;;;;10.70;5.68;;;;;;;20.69;100.00;101942.59;5071450;28;20047;-57
2022/08/30 02:59:48;;;;;;;11.07;6.57;;;;;;;20.80;100.00;101946.41;5074695;28;20052;-57
2022/08/30 03:02:14;;;;;;;16.08;6.82;;;;;;;20.76;100.00;101939.75;5079885;28;20036;-59
2022/08/30 03:04:42;;;;;;;9.52;6.07;;;;;;;20.53;100.00;101951.44;5071982;28;20025;-58
2022/08/30 03:07:08;;;;;;;15.90;6.80;;;;;;;20.58;100.00;101946.97;5074056;28;20048;-58
2022/08/30 03:09:35;;;;;;;8.30;5.97;;;;;;;20.63;100.00;101948.97;5073362;28;20284;-57
2022/08/30 03:12:02;;;;;;;14.23;6.43;;;;;;;20.52;100.00;101950.63;5073972;28;20033;-57
2022/08/30 03:14:27;;;;;;;14.20;6.20;;;;;;;20.54;100.00;101945.78;5075881;28;20033;-56
2022/08/30 03:16:53;;;;;;;9.95;6.70;;;;;;;20.61;100.00;101948.41;5076974;28;20059;-57
2022/08/30 03:19:19;;;;;;;7.50;5.97;;;;;;;20.42;100.00;101951.22;5070961;28;20039;-57
2022/08/30 03:21:45;;;;;;;11.43;7.00;;;;;;;20.45;100.00;101948.03;5068252;28;20033;-59
2022/08/30 03:24:12;;;;;;;10.40;6.28;;;;;;;20.41;100.00;101952.28;5068540;28;20047;-58
2022/08/30 03:26:38;;;;;;;12.73;7.00;;;;;;;20.30;100.00;101948.50;5071402;28;20036;-58
2022/08/30 03:29:03;;;;;;;12.75;6.60;;;;;;;20.27;100.00;101942.69;5076690;28;20288;-59
2022/08/30 03:31:29;;;;;;;10.18;6.75;;;;;;;20.25;100.00;101939.38;5069030;28;20044;-58
2022/08/30 03:33:55;;;;;;;10.88;6.68;;;;;;;20.24;100.00;101932.28;5072550;28;20029;-58
2022/08/30 03:36:20;;;;;;;9.48;6.35;;;;;;;20.30;100.00;101934.91;5069531;28;20050;-57
2022/08/30 03:38:46;;;;;;;11.70;6.22;;;;;;;20.27;100.00;101937.25;5071780;28;20029;-58
2022/08/30 03:41:12;;;;;;;;;;;;;;;20.09;100.00;101933.59;5072954;28;20029;-56
2022/08/30 03:43:37;;;;;;;8.90;6.53;;;;;;;20.11;100.00;101933.34;5078093;28;19939;-57
2022/08/30 03:46:03;;;;;;;9.80;6.80;;;;;;;20.16;100.00;101937.00;5072742;28;20041;-57
2022/08/30 03:48:29;;;;;;;;;;;;;;;20.15;100.00;101940.78;5076665;28;20051;-58
2022/08/30 03:50:55;;;;;;;12.50;6.90;;;;;;;20.12;100.00;101930.41;5072755;28;19963;-58
2022/08/30 03:53:21;;;;;;;11.80;7.53;;;;;;;20.06;100.00;101928.59;5077251;28;20067;-57
2022/08/30 03:55:47;;;;;;;9.18;6.15;;;;;;;20.20;100.00;101929.22;5070590;28;20052;-56
2022/08/30 03:58:13;;;;;;;12.90;8.40;;;;;;;19.96;100.00;101925.63;5075122;28;20032;-57
2022/08/30 04:00:38;;;;;;;9.27;6.18;;;;;;;20.03;100.00;101926.34;5070217;28;20033;-57
2022/08/30 04:03:04;;;;;;;14.07;7.28;;;;;;;19.95;100.00;101932.13;5069413;28;20063;-59
2022/08/30 04:05:30;;;;;;;13.05;7.57;;;;;;;20.05;100.00;101935.09;5068350;28;20041;-58
2022/08/30 04:07:55;;;;;;;14.48;8.18;;;;;;;20.03;100.00;101938.06;5071252;28;20041;-60
2022/08/30 04:10:22;;;;;;;13.65;7.85;;;;;;;20.24;100.00;101933.13;5073414;28;20037;-58
2022/08/30 04:12:50;;;;;;;11.98;7.32;;;;;;;20.32;100.00;101930.06;5070508;28;20037;-59
2022/08/30 04:15:18;;;;;;;13.83;8.93;;;;;;;20.21;100.00;101939.03;5071888;28;20044;-56
2022/08/30 04:17:45;;;;;;;13.83;8.13;;;;;;;20.23;100.00;101936.06;5071827;28;20290;-56
2022/08/30 04:20:10;;;;;;;19.92;11.43;;;;;;;20.27;100.00;101938.09;5070222;28;20277;-59
2022/08/30 04:22:36;;;;;;;14.32;8.48;;;;;;;20.37;100.00;101940.22;5074055;28;20029;-59
2022/08/30 04:25:03;;;;;;;16.85;10.63;;;;;;;20.45;100.00;101939.06;5070950;28;20037;-58
2022/08/30 04:27:28;;;;;;;14.83;8.93;;;;;;;20.41;100.00;101940.56;5075986;28;20055;-56
2022/08/30 04:29:55;;;;;;;31.33;17.37;;;;;;;20.37;100.00;101942.94;5073552;28;20302;-59
2022/08/30 04:32:21;;;;;;;17.53;9.90;;;;;;;20.44;100.00;101943.66;5074659;28;20033;-59
2022/08/30 04:34:46;;;;;;;14.80;8.60;;;;;;;20.21;100.00;101944.47;5074513;28;20296;-59
2022/08/30 04:37:12;;;;;;;32.50;17.65;;;;;;;20.35;100.00;101945.06;5074229;28;20067;-61
2022/08/30 04:39:39;;;;;;;25.50;14.40;;;;;;;20.39;100.00;101957.13;5079631;28;20033;-61
2022/08/30 04:42:05;;;;;;;21.77;11.53;;;;;;;20.28;100.00;101947.91;5069487;28;20059;-57
2022/08/30 04:44:31;;;;;;;20.93;10.63;;;;;;;20.28;100.00;101960.63;5068875;28;20037;-59
2022/08/30 04:46:57;;;;;;;29.20;16.38;;;;;;;20.19;100.00;101962.88;5070367;28;20273;-60
2022/08/30 04:49:23;;;;;;;32.78;18.55;;;;;;;20.35;100.00;101964.09;5069827;28;20040;-58
2022/08/30 04:51:48;;;;;;;21.00;12.25;;;;;;;20.47;100.00;101964.91;5073549;28;20055;-59
2022/08/30 04:54:14;;;;;;;30.33;17.55;;;;;;;20.43;100.00;101962.91;5073727;28;20037;-58
2022/08/30 04:56:39;;;;;;;27.13;16.42;;;;;;;20.31;100.00;101965.63;5076676;28;20037;-59
2022/08/30 04:59:05;;;;;;;19.33;11.98;;;;;;;20.24;100.00;101965.72;5076778;28;20041;-60
2022/08/30 05:01:31;;;;;;;21.85;12.48;;;;;;;20.37;100.00;101972.81;5079202;28;20085;-60
2022/08/30 05:03:58;;;;;;;17.33;10.63;;;;;;;20.43;100.00;101974.59;5073593;28;20116;-59
2022/08/30 05:06:27;;;;;;;21.30;10.52;;;;;;;20.49;100.00;101973.66;5081208;28;20277;-56
2022/08/30 05:08:54;;;;;;;18.47;10.83;;;;;;;20.51;100.00;101976.16;5077858;28;20033;-60
2022/08/30 05:11:23;;;;;;;16.73;9.30;;;;;;;20.60;100.00;101979.34;5081926;28;20281;-57
2022/08/30 05:13:49;;;;;;;14.03;9.40;;;;;;;20.42;100.00;101978.38;5078365;28;20345;-58
2022/08/30 05:16:16;;;;;;;15.40;8.05;;;;;;;20.56;100.00;101981.69;5076381;28;20254;-56
2022/08/30 05:18:43;;;;;;;18.20;9.70;;;;;;;20.52;100.00;101980.53;5072674;28;20092;-59
2022/08/30 05:21:14;;;;;;;13.87;8.97;;;;;;;20.57;100.00;101986.06;5079249;28;20292;-58
2022/08/30 05:23:39;;;;;;;57.40;29.57;;;;;;;20.41;100.00;101990.31;5073366;28;20285;-58
2022/08/30 05:26:11;;;;;;;151.53;81.10;;;;;;;20.23;100.00;101985.78;5081657;28;20261;-58
2022/08/30 05:28:37;;;;;;;35.17;17.57;;;;;;;20.45;100.00;101983.34;5076397;28;20261;-61
2022/08/30 05:31:02;;;;;;;28.93;16.27;;;;;;;20.47;100.00;101986.66;5075313;28;20283;-58
2022/08/30 05:33:28;;;;;;;25.95;15.18;;;;;;;20.60;100.00;101987.50;5075850;28;20266;-56
2022/08/30 05:35:53;;;;;;;51.28;24.40;;;;;;;20.57;100.00;101985.25;5074178;28;20044;-58
2022/08/30 05:38:20;;;;;;;14.75;8.45;;;;;;;20.30;100.00;101988.41;5074448;28;20035;-58
2022/08/30 05:40:45;;;;;;;22.38;12.35;;;;;;;20.26;100.00;101998.91;5071923;28;20029;-57
2022/08/30 05:43:13;;;;;;;63.88;32.28;;;;;;;20.48;100.00;101992.94;5079887;28;20053;-59
2022/08/30 05:45:39;;;;;;;70.87;33.87;;;;;;;20.49;100.00;101995.41;5072231;28;20033;-58
2022/08/30 05:48:05;;;;;;;37.25;19.90;;;;;;;20.33;100.00;101988.75;5075579;28;20292;-55
2022/08/30 05:50:31;;;;;;;25.25;13.13;;;;;;;20.54;100.00;101996.59;5074897;28;20092;-58
2022/08/30 05:52:56;;;;;;;14.13;6.38;;;;;;;20.47;100.00;101991.28;5076689;28;20036;-59
2022/08/30 05:55:22;;;;;;;13.80;7.70;;;;;;;20.56;100.00;101994.47;5073893;28;20052;-58
2022/08/30 05:57:47;;;;;;;13.00;6.28;;;;;;;20.61;100.00;101997.31;5074905;28;20301;-60
2022/08/30 06:00:16;;;;;;;11.18;6.35;;;;;;;20.58;100.00;101997.78;5075906;28;20083;-57
2022/08/30 06:02:42;;;;;;;11.90;6.77;;;;;;;20.61;100.00;102008.19;5076845;28;20028;-58
2022/08/30 06:05:09;;;;;;;;;;;;;;;20.63;100.00;102008.78;5076300;28;20262;-57
2022/08/30 06:07:34;;;;;;;11.10;5.67;;;;;;;20.67;100.00;102011.84;5071431;28;19913;-57
2022/08/30 06:10:00;;;;;;;9.45;5.03;;;;;;;20.82;100.00;102008.69;5079252;28;20289;-60
2022/08/30 06:12:26;;;;;;;11.05;5.93;;;;;;;20.98;100.00;102012.59;5076709;28;20043;-59
2022/08/30 06:14:51;;;;;;;8.98;5.25;;;;;;;20.98;100.00;102007.16;5074967;28;20036;-59
2022/08/30 06:17:17;;;;;;;9.17;5.27;;;;;;;21.09;100.00;102008.22;5074440;28;20033;-56
2022/08/30 06:19:43;;;;;;;10.20;4.90;;;;;;;21.14;100.00;102008.31;5079137;28;20286;-58
2022/08/30 06:22:08;;;;;;;8.25;4.72;;;;;;;21.00;100.00;102010.47;5080974;28;20035;-56
2022/08/30 06:24:35;;;;;;;7.05;3.92;;;;;;;21.18;100.00;102014.94;5081970;28;20033;-59
2022/08/30 06:27:01;;;;;;;7.73;5.00;;;;;;;21.15;100.00;102016.25;5080551;28;20052;-56
2022/08/30 06:29:27;;;;;;;7.50;4.13;;;;;;;21.13;100.00;102017.53;5083603;28;20021;-58
2022/08/30 06:31:56;;;;;;;7.55;4.93;;;;;;;20.81;100.00;102010.56;5083052;28;20059;-57
2022/08/30 06:34:21;;;;;;;7.90;4.93;;;;;;;20.94;100.00;102011.41;5083432;28;20032;-58
2022/08/30 06:36:47;;;;;;;8.32;3.78;;;;;;;21.22;100.00;102007.13;5075206;28;20032;-58
2022/08/30 06:39:13;;;;;;;11.25;4.85;;;;;;;21.28;100.00;102006.16;5075046;28;20097;-59
2022/08/30 06:41:40;;;;;;;8.18;4.47;;;;;;;21.34;100.00;102016.13;5068424;28;20029;-59
2022/08/30 06:44:17;;;;;;;7.23;4.13;;;;;;;21.30;100.00;102012.19;5074760;28;20036;-58
2022/08/30 06:46:42;;;;;;;10.05;4.78;;;;;;;21.40;100.00;102011.59;5070092;28;20040;-59
2022/08/30 06:49:08;;;;;;;7.18;3.50;;;;;;;21.44;100.00;102008.16;5074529;28;20033;-59
2022/08/30 06:51:37;;;;;;;7.75;3.85;;;;;;;21.48;100.00;102009.31;5072571;28;20052;-60
2022/08/30 06:54:06;;;;;;;6.63;3.87;;;;;;;21.55;100.00;102014.63;5074356;28;20044;-58
2022/08/30 06:56:31;;;;;;;10.37;3.47;;;;;;;21.66;100.00;102017.56;5078647;28;20032;-57
2022/08/30 06:58:57;;;;;;;5.03;2.67;;;;;;;21.79;100.00;102011.84;5075487;28;20063;-56
2022/08/30 07:01:25;;;;;;;5.60;3.75;;;;;;;21.85;100.00;102021.78;5077035;28;20047;-57
2022/08/30 07:03:52;;;;;;;8.93;4.40;;;;;;;21.68;100.00;102012.72;5076096;28;20033;-59
2022/08/30 07:06:19;;;;;;;6.50;3.67;;;;;;;21.69;100.00;102009.75;5075116;28;20097;-60
2022/08/30 07:08:45;;;;;;;7.60;4.20;;;;;;;21.81;100.00;102003.47;5078355;28;20028;-58
2022/08/30 07:11:11;;;;;;;9.00;3.60;;;;;;;21.77;100.00;102003.09;5078037;28;20033;-59
2022/08/30 07:13:37;;;;;;;7.97;3.60;;;;;;;21.87;100.00;102010.66;5076642;28;20036;-61
2022/08/30 07:16:13;;;;;;;9.48;3.45;;;;;;;22.05;100.00;102012.34;5074160;28;20032;-58
2022/08/30 07:18:53;;;;;;;8.10;3.70;;;;;;;21.99;100.00;102013.31;5074433;28;20096;-59
2022/08/30 07:21:27;;;;;;;5.60;3.40;;;;;;;21.99;100.00;102016.03;5073009;28;20021;-58
2022/08/30 07:23:56;;;;;;;5.63;2.83;;;;;;;21.86;100.00;102017.16;5074152;28;20033;-59
2022/08/30 07:26:38;;;;;;;5.07;2.40;;;;;;;22.21;100.00;102018.88;5073533;28;20079;-58
2022/08/30 07:29:04;;;;;;;3.70;2.37;;;;;;;22.31;100.00;102016.34;5075697;28;20055;-56
2022/08/30 07:31:30;;;;;;;7.53;2.55;;;;;;;22.26;100.00;102021.72;5077686;28;20029;-58
2022/08/30 07:33:55;;;;;;;5.40;2.10;;;;;;;22.29;100.00;102020.38;5076561;28;20044;-56
2022/08/30 07:36:22;;;;;;;7.57;2.10;;;;;;;22.33;100.00;102024.25;5074323;28;20049;-58
2022/08/30 07:38:49;;;;;;;5.47;1.93;;;;;;;22.67;100.00;102018.84;5076267;28;20279;-59
2022/08/30 07:41:24;;;;;;;4.83;2.10;;;;;;;22.83;100.00;102029.97;5077056;28;20053;-58
2022/08/30 07:43:50;;;;;;;3.73;1.40;;;;;;;22.56;100.00;102025.22;5081064;28;20049;-59
2022/08/30 07:46:16;;;;;;;3.72;1.40;;;;;;;22.57;100.00;102026.84;5074889;28;20025;-58
2022/08/30 07:48:41;;;;;;;;;;;;;;;22.77;100.00;102027.19;5071952;28;20033;-58
2022/08/30 07:51:13;;;;;;;1.73;1.07;;;;;;;22.84;100.00;102031.66;5073266;28;19944;-56
2022/08/30 07:53:39;;;;;;;2.80;1.33;;;;;;;22.84;100.00;102034.38;5073165;28;20044;-58
2022/08/30 07:56:05;;;;;;;;;;;;;;;22.76;100.00;102035.63;5074688;28;20025;-59
2022/08/30 07:58:31;;;;;;;3.73;1.40;;;;;;;22.90;100.00;102041.56;5073724;28;19936;-58
2022/08/30 08:00:58;;;;;;;5.75;1.27;;;;;;;23.18;100.00;102042.50;5077485;28;20092;-55
2022/08/30 08:03:25;;;;;;;3.77;1.07;;;;;;;23.24;100.00;102040.69;5075768;28;20104;-56
2022/08/30 08:05:52;;;;;;;2.97;1.03;;;;;;;23.41;100.00;102040.66;5079305;28;20041;-59
2022/08/30 08:08:19;;;;;;;4.53;1.10;;;;;;;23.38;100.00;102036.50;5074151;28;20033;-58
2022/08/30 08:10:45;;;;;;;4.03;1.10;;;;;;;23.45;100.00;102036.34;5076055;28;20052;-56
2022/08/30 08:13:10;;;;;;;6.13;1.35;;;;;;;23.38;100.00;102038.44;5079249;28;20059;-59
2022/08/30 08:15:36;;;;;;;2.95;1.50;;;;;;;23.71;100.00;102037.47;5078489;28;20092;-58
2022/08/30 08:18:02;;;;;;;;;;;;;;;23.86;100.00;102039.56;5077900;28;20033;-57
2022/08/30 08:20:28;;;;;;;8.57;1.10;;;;;;;24.03;100.00;102044.13;5076352;28;19980;-60
2022/08/30 08:22:54;;;;;;;;;;;;;;;24.12;100.00;102044.50;5074157;28;20028;-58
2022/08/30 08:25:19;;;;;;;6.83;1.50;;;;;;;24.15;100.00;102044.78;5074221;28;19912;-60
2022/08/30 08:27:46;;;;;;;5.22;1.33;;;;;;;24.15;100.00;102049.44;5074586;28;20036;-59
2022/08/30 08:30:12;;;;;;;3.93;1.40;;;;;;;24.34;100.00;102047.16;5075702;28;20057;-57
2022/08/30 08:32:38;;;;;;;2.80;1.35;;;;;;;24.22;100.00;102057.41;5079101;28;20028;-60
2022/08/30 08:35:04;;;;;;;;;;;;;;;24.55;100.00;102047.31;5081860;28;20043;-59
2022/08/30 08:37:29;;;;;;;4.47;1.17;;;;;;;24.48;100.00;102048.38;5081230;28;19920;-60
2022/08/30 08:39:55;;;;;;;9.75;1.40;;;;;;;24.58;100.00;102044.06;5078150;28;20036;-58
2022/08/30 08:42:44;;;;;;;3.67;1.10;;;;;;;24.78;100.00;102046.16;5082755;28;20134;-60
2022/08/30 08:45:22;;;;;;;2.53;1.10;;;;;;;24.97;100.00;102048.47;5081982;28;20036;-59
2022/08/30 08:48:20;;;;;;;3.57;1.03;;;;;;;25.02;100.00;102041.13;5078812;28;20029;-61
2022/08/30 08:53:34;;;;;;;5.80;1.20;;;;;;;25.39;100.00;102044.06;5079032;28;20033;-58
2022/08/30 08:56:04;;;;;;;1.77;1.00;;;;;;;25.33;100.00;102038.53;5078854;28;20040;-59
2022/08/30 08:58:43;;;;;;;2.87;1.00;;;;;;;25.60;100.00;102039.50;5083158;28;20032;-60
2022/08/30 09:01:12;;;;;;;1.90;0.80;;;;;;;25.87;100.00;102047.53;5075595;28;20040;-56
2022/08/30 09:03:38;;;;;;;6.80;1.60;;;;;;;25.97;100.00;102048.63;5075077;28;20071;-59
2022/08/30 09:06:10;;;;;;;;;;;;;;;26.08;100.00;102039.34;5077995;28;20025;-59
2022/08/30 09:08:36;;;;;;;5.67;1.20;;;;;;;26.25;100.00;102047.34;5076418;28;19916;-60
2022/08/30 09:11:04;;;;;;;;;;;;;;;26.41;100.00;102048.16;5078030;28;20048;-59
2022/08/30 09:13:29;;;;;;;;;;;;;;;26.53;100.00;102042.41;5080448;28;19920;-58
2022/08/30 09:15:57;;;;;;;1.93;0.67;;;;;;;26.86;100.00;102040.19;5078280;28;19967;-59
2022/08/30 09:18:43;;;;;;;3.30;1.03;;;;;;;27.12;100.00;102047.56;5080074;28;20088;-60
2022/08/30 09:21:10;;;;;;;1.80;0.90;;;;;;;27.60;98.12;102050.69;5081146;28;20097;-59
2022/08/30 09:23:35;;;;;;;2.57;0.90;;;;;;;27.74;95.82;102061.06;5077277;28;20040;-59
2022/08/30 09:26:07;;;;;;;6.93;1.10;;;;;;;28.11;90.51;102059.72;5081995;28;20044;-61
2022/08/30 09:28:47;;;;;;;4.53;1.00;;;;;;;28.45;88.92;102067.22;5073538;28;20066;-58
2022/08/30 09:31:25;;;;;;;4.30;1.02;;;;;;;28.65;85.09;102068.16;5072920;28;20115;-58
2022/08/30 09:34:00;;;;;;;2.58;1.05;;;;;;;28.88;84.76;102068.50;5078416;28;20124;-59
2022/08/30 09:36:38;;;;;;;9.13;0.95;;;;;;;29.12;79.20;102070.47;5073167;28;20040;-59
2022/08/30 09:39:13;;;;;;;1.95;1.00;;;;;;;29.29;78.62;102070.00;5075230;28;20028;-60
2022/08/30 09:41:42;;;;;;;1.98;1.20;;;;;;;29.68;78.06;102065.38;5071274;28;20029;-59
2022/08/30 09:44:16;;;;;;;1.98;1.10;;;;;;;29.90;71.78;102073.91;5075924;28;20028;-60
2022/08/30 09:46:47;;;;;;;1.83;1.00;;;;;;;30.28;72.16;102078.59;5076497;28;20031;-61
2022/08/30 09:49:41;;;;;;;1.58;0.88;;;;;;;30.54;68.34;102080.13;5081184;28;20032;-58
2022/08/30 09:52:16;;;;;;;2.75;1.20;;;;;;;30.85;66.50;102080.41;5082241;28;20040;-58
2022/08/30 09:55:01;;;;;;;6.82;1.92;;;;;;;31.25;62.22;102081.88;5076296;28;20030;-59
2022/08/30 09:58:04;;;;;;;2.08;1.00;;;;;;;31.66;62.54;102077.47;5079910;28;20033;-60
2022/08/30 10:00:39;;;;;;;2.53;1.00;;;;;;;31.83;57.17;102080.41;5080256;28;20051;-59
2022/08/30 10:03:23;;;;;;;3.05;1.25;;;;;;;32.15;57.40;102084.09;5080787;28;20051;-60
2022/08/30 10:05:57;;;;;;;3.85;1.15;;;;;;;32.19;56.27;102074.03;5080911;28;20029;-58
2022/08/30 10:08:54;;;;;;;4.10;1.10;;;;;;;32.29;55.15;102080.44;5078839;28;20064;-60
2022/08/30 10:11:34;;;;;;;3.42;1.55;;;;;;;32.68;52.18;102073.38;5049015;28;20121;-60
2022/08/30 10:14:19;;;;;;;7.22;1.77;;;;;;;32.67;51.71;102068.97;5074992;28;20057;-59
2022/08/30 10:17:06;;;;;;;2.20;1.10;;;;;;;32.98;49.96;102067.34;5079529;28;20063;-59
2022/08/30 10:20:07;;;;;;;3.88;1.17;;;;;;;33.22;50.97;102077.22;5073688;28;20048;-59
2022/08/30 10:22:32;;;;;;;5.38;1.20;;;;;;;32.88;49.09;102072.06;5071152;28;20037;-61
2022/08/30 10:25:10;;;;;;;2.10;1.10;;;;;;;33.23;47.87;102076.06;5077115;28;20073;-59
2022/08/30 10:27:47;;;;;;;4.82;1.50;;;;;;;32.94;47.06;102075.47;5076300;28;20055;-61
2022/08/30 10:30:14;;;;;;;8.73;1.25;;;;;;;33.11;46.21;102079.47;5079172;28;20041;-59
2022/08/30 10:32:44;;;;;;;3.35;1.20;;;;;;;33.45;48.32;102076.00;5080912;28;20029;-60
2022/08/30 10:35:26;;;;;;;2.72;1.27;;;;;;;33.77;46.83;102086.97;5081809;28;20033;-58
2022/08/30 10:38:02;;;;;;;2.30;1.05;;;;;;;33.90;45.57;102083.19;5091236;28;20039;-59
2022/08/30 10:43:44;;;;;;;3.85;1.38;;;;;;;34.14;45.11;102076.41;5076520;28;19974;-58
2022/08/30 10:46:19;;;;;;;3.35;1.23;;;;;;;34.51;44.51;102081.56;5069335;28;20025;-57
2022/08/30 10:48:47;;;;;;;5.57;1.02;;;;;;;34.73;42.93;102088.84;5073656;28;20028;-59
2022/08/30 10:51:46;;;;;;;2.83;0.80;;;;;;;35.17;43.79;102087.88;5077830;28;20036;-60
2022/08/30 10:54:57;;;;;;;2.45;0.80;;;;;;;35.50;43.83;102078.81;5074900;28;20039;-59
2022/08/30 10:57:23;;;;;;;2.25;0.95;;;;;;;35.37;43.44;102083.50;5078956;28;20056;-58
2022/08/30 10:59:57;;;;;;;4.22;1.10;;;;;;;35.70;41.73;102076.44;5078974;28;20047;-56
2022/08/30 11:03:21;;;;;;;1.17;0.82;;;;;;;35.89;41.21;102079.53;5077957;28;20033;-59
2022/08/30 11:06:08;;;;;;;7.45;1.55;;;;;;;36.03;39.01;102082.06;5056089;28;20068;-59
2022/08/30 11:09:05;;;;;;;2.88;0.65;;;;;;;35.82;41.35;102075.69;5040471;28;20097;-59
2022/08/30 11:11:36;;;;;;;1.55;0.85;;;;;;;36.08;40.66;102069.91;5070713;28;20037;-57
2022/08/30 11:14:05;;;;;;;8.27;1.10;;;;;;;36.39;40.38;102076.97;5075339;28;20033;-59
2022/08/30 11:16:40;;;;;;;2.78;1.48;;;;;;;37.13;38.60;102073.50;5071990;28;20059;-60
2022/08/30 11:19:38;;;;;;;2.53;0.80;;;;;;;37.29;41.16;102068.00;5075428;28;20048;-57
2022/08/30 11:22:20;;;;;;;5.75;1.10;;;;;;;37.41;36.77;102072.75;5068834;28;20040;-59
2022/08/30 11:25:07;;;;;;;3.63;1.05;;;;;;;37.40;36.85;102071.13;5071376;28;20097;-59
2022/08/30 11:27:42;;;;;;;1.45;1.02;;;;;;;37.59;36.56;102064.13;5076328;28;20048;-57
2022/08/30 11:30:25;;;;;;;2.55;0.90;;;;;;;37.56;34.18;102070.44;5072589;28;20060;-58
2022/08/30 11:33:04;;;;;;;4.78;1.42;;;;;;;37.15;35.35;102062.00;5073152;28;20041;-60
2022/08/30 11:35:44;;;;;;;2.58;1.30;;;;;;;37.80;34.03;102055.56;5073156;28;20082;-56